sensor_id;sensor_type;location;lat;lon;timestamp;pressure;altitude;pressure_sealevel;temperature;humidity
35553;BME280;21656;46.054;13.614;2022-12-18T08:26:01;102247.31;;;4.60;66.40
35553;BME280;21656;46.054;13.614;2022-12-18T08:28:26;102244.44;;;4.67;65.51
35553;BME280;21656;46.054;13.614;2022-12-18T08:30:52;102261.31;;;4.68;65.61
35553;BME280;21656;46.054;13.614;2022-12-18T08:33:17;102259.56;;;4.67;66.02
35553;BME280;21656;46.054;13.614;2022-12-18T08:35:43;102261.16;;;4.74;64.98
35553;BME280;21656;46.054;13.614;2022-12-18T08:38:08;102268.09;;;4.81;64.77
35553;BME280;21656;46.054;13.614;2022-12-18T08:40:33;102265.28;;;4.86;65.51
35553;BME280;21656;46.054;13.614;2022-12-18T08:42:59;102278.59;;;4.87;65.31
35553;BME280;21656;46.054;13.614;2022-12-18T08:45:43;102281.34;;;4.84;65.99
35553;BME280;21656;46.054;13.614;2022-12-18T08:48:08;102276.00;;;4.84;65.65
35553;BME280;21656;46.054;13.614;2022-12-18T08:50:34;102285.59;;;4.91;66.02
35553;BME280;21656;46.054;13.614;2022-12-18T08:53:00;102282.19;;;4.86;66.17
35553;BME280;21656;46.054;13.614;2022-12-18T08:55:25;102297.31;;;4.86;65.84
35553;BME280;21656;46.054;13.614;2022-12-18T08:57:51;102294.44;;;4.93;65.24
35553;BME280;21656;46.054;13.614;2022-12-18T09:00:16;102293.34;;;5.00;66.10
35553;BME280;21656;46.054;13.614;2022-12-18T09:02:42;102296.72;;;5.07;64.98
35553;BME280;21656;46.054;13.614;2022-12-18T09:05:08;102302.63;;;5.18;65.03
35553;BME280;21656;46.054;13.614;2022-12-18T09:07:34;102314.81;;;5.29;65.85
35553;BME280;21656;46.054;13.614;2022-12-18T09:10:00;102312.22;;;5.27;65.26
35553;BME280;21656;46.054;13.614;2022-12-18T09:12:26;102313.91;;;5.30;64.59
35553;BME280;21656;46.054;13.614;2022-12-18T09:14:51;102298.41;;;5.42;64.39
35553;BME280;21656;46.054;13.614;2022-12-18T09:17:17;102304.72;;;5.40;63.58
35553;BME280;21656;46.054;13.614;2022-12-18T09:19:42;102301.72;;;5.51;64.59
35553;BME280;21656;46.054;13.614;2022-12-18T09:22:08;102309.59;;;5.55;63.22
35553;BME280;21656;46.054;13.614;2022-12-18T09:24:34;102312.38;;;5.52;64.16
35553;BME280;21656;46.054;13.614;2022-12-18T09:27:00;102325.00;;;5.47;62.97
35553;BME280;21656;46.054;13.614;2022-12-18T09:29:26;102317.78;;;5.49;62.89
35553;BME280;21656;46.054;13.614;2022-12-18T09:31:53;102326.38;;;5.60;62.86
35553;BME280;21656;46.054;13.614;2022-12-18T09:34:19;102318.22;;;5.65;62.65
35553;BME280;21656;46.054;13.614;2022-12-18T09:36:47;102318.88;;;5.73;62.41
35553;BME280;21656;46.054;13.614;2022-12-18T09:39:12;102325.19;;;5.71;62.73
35553;BME280;21656;46.054;13.614;2022-12-18T09:46:44;102325.28;;;5.97;62.37
35553;BME280;21656;46.054;13.614;2022-12-18T09:49:14;102320.88;;;5.96;61.86
35553;BME280;21656;46.054;13.614;2022-12-18T09:51:55;102318.19;;;5.96;61.54
35553;BME280;21656;46.054;13.614;2022-12-18T09:54:39;102330.16;;;6.13;60.90
35553;BME280;21656;46.054;13.614;2022-12-18T09:57:20;102316.19;;;6.31;60.71
35553;BME280;21656;46.054;13.614;2022-12-18T09:59:55;102316.38;;;6.25;60.26
35553;BME280;21656;46.054;13.614;2022-12-18T10:02:26;102325.25;;;6.27;60.67
35553;BME280;21656;46.054;13.614;2022-12-18T10:19:22;102308.03;;;6.61;58.71
35553;BME280;21656;46.054;13.614;2022-12-18T10:27:22;102301.53;;;7.20;56.66
35553;BME280;21656;46.054;13.614;2022-12-18T10:29:49;102302.66;;;7.37;56.29
35553;BME280;21656;46.054;13.614;2022-12-18T10:32:23;102307.16;;;7.37;55.29
35553;BME280;21656;46.054;13.614;2022-12-18T10:34:52;102292.97;;;7.57;55.36
35553;BME280;21656;46.054;13.614;2022-12-18T10:37:22;102286.69;;;7.58;55.83
35553;BME280;21656;46.054;13.614;2022-12-18T10:40:12;102289.50;;;7.77;54.85
35553;BME280;21656;46.054;13.614;2022-12-18T10:42:39;102294.31;;;7.69;53.69
35553;BME280;21656;46.054;13.614;2022-12-18T10:45:16;102291.88;;;7.85;54.27
35553;BME280;21656;46.054;13.614;2022-12-18T10:47:48;102285.22;;;7.95;54.51
35553;BME280;21656;46.054;13.614;2022-12-18T10:50:41;102279.34;;;8.07;54.23
35553;BME280;21656;46.054;13.614;2022-12-18T10:53:19;102285.06;;;8.21;53.09
35553;BME280;21656;46.054;13.614;2022-12-18T10:55:46;102277.13;;;8.18;53.04
35553;BME280;21656;46.054;13.614;2022-12-18T10:58:29;102277.63;;;8.28;53.17
35553;BME280;21656;46.054;13.614;2022-12-18T11:01:10;102270.66;;;8.46;51.98
35553;BME280;21656;46.054;13.614;2022-12-18T11:08:41;102265.53;;;8.60;51.32
35553;BME280;21656;46.054;13.614;2022-12-18T11:11:20;102260.06;;;8.63;50.99
35553;BME280;21656;46.054;13.614;2022-12-18T11:16:21;102263.19;;;8.73;51.94
35553;BME280;21656;46.054;13.614;2022-12-18T11:18:46;102271.66;;;8.64;52.10
35553;BME280;21656;46.054;13.614;2022-12-18T11:21:13;102272.72;;;8.60;50.75
35553;BME280;21656;46.054;13.614;2022-12-18T11:24:07;102263.81;;;8.59;50.64
35553;BME280;21656;46.054;13.614;2022-12-18T11:26:43;102257.28;;;8.65;50.37
35553;BME280;21656;46.054;13.614;2022-12-18T11:29:16;102254.06;;;8.77;50.66
35553;BME280;21656;46.054;13.614;2022-12-18T11:31:42;102260.16;;;9.01;50.70
35553;BME280;21656;46.054;13.614;2022-12-18T11:36:48;102253.66;;;9.07;49.70
35553;BME280;21656;46.054;13.614;2022-12-18T11:42:58;102266.97;;;8.89;49.26
35553;BME280;21656;46.054;13.614;2022-12-18T11:45:23;102251.41;;;8.96;49.20
35553;BME280;21656;46.054;13.614;2022-12-18T11:48:03;102257.72;;;9.16;49.01
35553;BME280;21656;46.054;13.614;2022-12-18T11:53:02;102257.25;;;9.06;49.22
35553;BME280;21656;46.054;13.614;2022-12-18T11:55:46;102256.69;;;8.99;49.11
35553;BME280;21656;46.054;13.614;2022-12-18T12:06:30;102238.28;;;9.29;49.35
35553;BME280;21656;46.054;13.614;2022-12-18T12:12:13;102237.00;;;9.57;48.64
35553;BME280;21656;46.054;13.614;2022-12-18T12:15:10;102237.28;;;9.70;48.34
35553;BME280;21656;46.054;13.614;2022-12-18T12:31:14;102229.94;;;9.54;49.05
35553;BME280;21656;46.054;13.614;2022-12-18T12:34:16;102215.00;;;9.66;48.80
35553;BME280;21656;46.054;13.614;2022-12-18T12:36:54;102231.94;;;9.68;47.94
35553;BME280;21656;46.054;13.614;2022-12-18T12:39:35;102237.81;;;9.95;48.46
35553;BME280;21656;46.054;13.614;2022-12-18T12:42:05;102234.16;;;9.96;48.69
35553;BME280;21656;46.054;13.614;2022-12-18T12:44:56;102238.47;;;10.01;46.81
35553;BME280;21656;46.054;13.614;2022-12-18T12:47:31;102242.88;;;10.02;47.44
35553;BME280;21656;46.054;13.614;2022-12-18T12:50:02;102251.72;;;9.86;47.34
35553;BME280;21656;46.054;13.614;2022-12-18T12:52:55;102255.66;;;9.60;47.38
35553;BME280;21656;46.054;13.614;2022-12-18T12:55:26;102264.75;;;9.58;48.36
35553;BME280;21656;46.054;13.614;2022-12-18T13:01:04;102252.09;;;9.41;47.54
35553;BME280;21656;46.054;13.614;2022-12-18T13:06:27;102256.81;;;9.73;47.46
35553;BME280;21656;46.054;13.614;2022-12-18T13:09:00;102264.81;;;9.56;47.22
35553;BME280;21656;46.054;13.614;2022-12-18T13:11:34;102262.44;;;9.50;48.54
35553;BME280;21656;46.054;13.614;2022-12-18T13:14:27;102265.47;;;9.42;47.43
35553;BME280;21656;46.054;13.614;2022-12-18T13:20:07;102262.84;;;9.01;48.27
35553;BME280;21656;46.054;13.614;2022-12-18T13:22:43;102267.88;;;8.88;48.79
35553;BME280;21656;46.054;13.614;2022-12-18T13:28:01;102274.69;;;8.56;50.26
35553;BME280;21656;46.054;13.614;2022-12-18T13:35:52;102286.00;;;8.20;50.98
35553;BME280;21656;46.054;13.614;2022-12-18T13:41:14;102279.56;;;7.57;52.15
35553;BME280;21656;46.054;13.614;2022-12-18T13:43:48;102281.34;;;7.34;53.55
35553;BME280;21656;46.054;13.614;2022-12-18T13:51:44;102277.25;;;6.74;55.86
35553;BME280;21656;46.054;13.614;2022-12-18T13:54:22;102269.13;;;6.50;54.82
35553;BME280;21656;46.054;13.614;2022-12-18T13:56:50;102267.91;;;6.34;57.08
35553;BME280;21656;46.054;13.614;2022-12-18T13:59:26;102265.06;;;6.12;57.69
35553;BME280;21656;46.054;13.614;2022-12-18T14:01:55;102265.69;;;5.92;58.02
35553;BME280;21656;46.054;13.614;2022-12-18T14:04:28;102267.09;;;5.76;59.32
35553;BME280;21656;46.054;13.614;2022-12-18T14:07:25;102263.72;;;5.69;59.69
35553;BME280;21656;46.054;13.614;2022-12-18T14:09:59;102256.97;;;5.57;59.91
35553;BME280;21656;46.054;13.614;2022-12-18T14:12:33;102256.28;;;5.51;60.57
35553;BME280;21656;46.054;13.614;2022-12-18T14:20:50;102245.44;;;5.26;62.92
35553;BME280;21656;46.054;13.614;2022-12-18T14:23:33;102249.19;;;5.20;62.72
35553;BME280;21656;46.054;13.614;2022-12-18T14:26:01;102252.94;;;5.13;62.78
35553;BME280;21656;46.054;13.614;2022-12-18T14:28:27;102258.69;;;4.99;64.42
35553;BME280;21656;46.054;13.614;2022-12-18T14:30:53;102250.84;;;4.93;65.11
35553;BME280;21656;46.054;13.614;2022-12-18T14:33:25;102257.22;;;4.87;65.51
35553;BME280;21656;46.054;13.614;2022-12-18T14:38:39;102262.19;;;4.68;66.45
35553;BME280;21656;46.054;13.614;2022-12-18T14:41:14;102269.28;;;4.69;66.66
35553;BME280;21656;46.054;13.614;2022-12-18T14:43:42;102267.72;;;4.61;66.70
35553;BME280;21656;46.054;13.614;2022-12-18T14:48:52;102271.34;;;4.58;67.87
35553;BME280;21656;46.054;13.614;2022-12-18T14:51:19;102283.06;;;4.52;68.55
35553;BME280;21656;46.054;13.614;2022-12-18T14:53:54;102285.72;;;4.52;69.40
35553;BME280;21656;46.054;13.614;2022-12-18T14:56:23;102295.66;;;4.47;67.84
35553;BME280;21656;46.054;13.614;2022-12-18T14:59:01;102300.88;;;4.52;68.56
35553;BME280;21656;46.054;13.614;2022-12-18T15:01:37;102299.53;;;4.36;68.82
35553;BME280;21656;46.054;13.614;2022-12-18T15:04:05;102294.19;;;4.36;67.95
35553;BME280;21656;46.054;13.614;2022-12-18T15:06:48;102300.34;;;4.38;69.53
35553;BME280;21656;46.054;13.614;2022-12-18T15:09:26;102313.00;;;4.29;68.67
35553;BME280;21656;46.054;13.614;2022-12-18T15:12:00;102299.91;;;4.19;69.56
35553;BME280;21656;46.054;13.614;2022-12-18T15:14:39;102309.63;;;4.21;70.26
35553;BME280;21656;46.054;13.614;2022-12-18T15:17:17;102305.25;;;4.19;70.31
35553;BME280;21656;46.054;13.614;2022-12-18T15:19:44;102311.75;;;4.07;69.71
35553;BME280;21656;46.054;13.614;2022-12-18T15:22:20;102309.13;;;4.05;69.96
35553;BME280;21656;46.054;13.614;2022-12-18T15:24:47;102319.75;;;4.07;70.41
35553;BME280;21656;46.054;13.614;2022-12-18T15:30:15;102324.38;;;3.99;71.50
35553;BME280;21656;46.054;13.614;2022-12-18T15:32:42;102329.91;;;3.91;71.01
35553;BME280;21656;46.054;13.614;2022-12-18T15:37:40;102337.09;;;3.87;71.22
35553;BME280;21656;46.054;13.614;2022-12-18T15:40:11;102337.09;;;3.87;71.93
35553;BME280;21656;46.054;13.614;2022-12-18T15:42:37;102340.66;;;3.86;72.02
35553;BME280;21656;46.054;13.614;2022-12-18T15:45:22;102333.59;;;3.84;72.10
35553;BME280;21656;46.054;13.614;2022-12-18T15:47:48;102333.88;;;3.72;72.40
35553;BME280;21656;46.054;13.614;2022-12-18T15:50:13;102338.97;;;3.82;72.44
35553;BME280;21656;46.054;13.614;2022-12-18T15:52:41;102342.06;;;3.62;73.16
35553;BME280;21656;46.054;13.614;2022-12-18T15:55:19;102341.13;;;3.65;73.44
35553;BME280;21656;46.054;13.614;2022-12-18T15:58:05;102349.06;;;3.68;73.04
35553;BME280;21656;46.054;13.614;2022-12-18T16:00:32;102355.50;;;3.56;74.26
35553;BME280;21656;46.054;13.614;2022-12-18T16:02:59;102360.84;;;3.56;75.12
35553;BME280;21656;46.054;13.614;2022-12-18T16:05:26;102367.81;;;3.63;74.65
35553;BME280;21656;46.054;13.614;2022-12-18T16:07:53;102364.28;;;3.61;74.75
35553;BME280;21656;46.054;13.614;2022-12-18T16:10:19;102356.34;;;3.60;74.25
35553;BME280;21656;46.054;13.614;2022-12-18T16:12:45;102358.94;;;3.63;73.83
35553;BME280;21656;46.054;13.614;2022-12-18T16:15:14;102354.47;;;3.63;73.80
35553;BME280;21656;46.054;13.614;2022-12-18T16:17:44;102371.50;;;3.56;74.70
35553;BME280;21656;46.054;13.614;2022-12-18T16:20:17;102365.13;;;3.65;75.20
35553;BME280;21656;46.054;13.614;2022-12-18T16:22:44;102366.16;;;3.56;74.54
35553;BME280;21656;46.054;13.614;2022-12-18T16:25:22;102363.56;;;3.55;74.37
35553;BME280;21656;46.054;13.614;2022-12-18T16:27:49;102372.59;;;3.46;75.01
35553;BME280;21656;46.054;13.614;2022-12-18T16:30:17;102359.19;;;3.49;75.67
35553;BME280;21656;46.054;13.614;2022-12-18T16:32:43;102363.88;;;3.39;76.21
35553;BME280;21656;46.054;13.614;2022-12-18T16:35:12;102369.84;;;3.49;76.06
35553;BME280;21656;46.054;13.614;2022-12-18T16:37:39;102365.38;;;3.51;75.79
35553;BME280;21656;46.054;13.614;2022-12-18T16:40:07;102373.44;;;3.50;75.83
35553;BME280;21656;46.054;13.614;2022-12-18T16:42:35;102370.88;;;3.43;76.62
35553;BME280;21656;46.054;13.614;2022-12-18T16:45:03;102366.38;;;3.45;76.74
35553;BME280;21656;46.054;13.614;2022-12-18T16:47:28;102370.91;;;3.42;76.18
35553;BME280;21656;46.054;13.614;2022-12-18T16:49:54;102378.00;;;3.43;75.65
35553;BME280;21656;46.054;13.614;2022-12-18T16:52:20;102377.13;;;3.42;76.04
35553;BME280;21656;46.054;13.614;2022-12-18T16:54:47;102380.72;;;3.38;75.39
35553;BME280;21656;46.054;13.614;2022-12-18T16:57:16;102378.16;;;3.34;76.65
35553;BME280;21656;46.054;13.614;2022-12-18T16:59:43;102370.31;;;3.26;77.08
35553;BME280;21656;46.054;13.614;2022-12-18T17:02:21;102380.97;;;3.26;78.40
35553;BME280;21656;46.054;13.614;2022-12-18T17:04:48;102370.22;;;3.31;76.80
35553;BME280;21656;46.054;13.614;2022-12-18T17:07:15;102371.97;;;3.32;76.64
35553;BME280;21656;46.054;13.614;2022-12-18T17:09:41;102385.28;;;3.32;77.04
35553;BME280;21656;46.054;13.614;2022-12-18T17:12:07;102376.41;;;3.34;76.60
35553;BME280;21656;46.054;13.614;2022-12-18T17:14:33;102371.16;;;3.28;76.91
35553;BME280;21656;46.054;13.614;2022-12-18T17:17:00;102371.31;;;3.20;76.75
35553;BME280;21656;46.054;13.614;2022-12-18T17:19:26;102369.44;;;3.27;78.08
35553;BME280;21656;46.054;13.614;2022-12-18T17:21:53;102367.72;;;3.23;76.96
35553;BME280;21656;46.054;13.614;2022-12-18T17:24:20;102373.91;;;3.23;78.43
35553;BME280;21656;46.054;13.614;2022-12-18T17:26:46;102380.97;;;3.26;77.91
35553;BME280;21656;46.054;13.614;2022-12-18T17:29:16;102376.56;;;3.25;77.17
35553;BME280;21656;46.054;13.614;2022-12-18T17:31:42;102378.22;;;3.31;76.78
35553;BME280;21656;46.054;13.614;2022-12-18T17:34:10;102389.03;;;3.21;77.50
35553;BME280;21656;46.054;13.614;2022-12-18T17:36:36;102395.44;;;3.11;77.33
35553;BME280;21656;46.054;13.614;2022-12-18T17:39:03;102388.03;;;3.29;76.81
35553;BME280;21656;46.054;13.614;2022-12-18T17:41:30;102400.53;;;3.23;77.45
35553;BME280;21656;46.054;13.614;2022-12-18T17:43:58;102395.28;;;3.20;75.86
35553;BME280;21656;46.054;13.614;2022-12-18T17:46:25;102398.81;;;3.21;76.30
35553;BME280;21656;46.054;13.614;2022-12-18T17:48:54;102394.41;;;3.20;77.61
35553;BME280;21656;46.054;13.614;2022-12-18T17:51:20;102381.13;;;3.18;77.73
35553;BME280;21656;46.054;13.614;2022-12-18T17:53:45;102398.88;;;3.19;76.93
35553;BME280;21656;46.054;13.614;2022-12-18T17:56:13;102391.75;;;3.18;77.22
35553;BME280;21656;46.054;13.614;2022-12-18T17:58:39;102393.69;;;3.10;77.67
35553;BME280;21656;46.054;13.614;2022-12-18T18:01:05;102394.56;;;3.12;78.26
35553;BME280;21656;46.054;13.614;2022-12-18T18:03:32;102398.16;;;3.08;76.14
35553;BME280;21656;46.054;13.614;2022-12-18T18:05:59;102403.53;;;3.07;76.97
35553;BME280;21656;46.054;13.614;2022-12-18T18:08:26;102395.63;;;3.02;77.56
35553;BME280;21656;46.054;13.614;2022-12-18T18:10:52;102397.22;;;3.12;78.50
35553;BME280;21656;46.054;13.614;2022-12-18T18:13:21;102390.94;;;3.15;77.97
35553;BME280;21656;46.054;13.614;2022-12-18T18:16:06;102400.91;;;3.03;77.17
35553;BME280;21656;46.054;13.614;2022-12-18T18:18:32;102412.47;;;3.04;78.69
35553;BME280;21656;46.054;13.614;2022-12-18T18:21:05;102404.63;;;2.93;78.36
35553;BME280;21656;46.054;13.614;2022-12-18T18:23:32;102413.47;;;2.95;78.03
35553;BME280;21656;46.054;13.614;2022-12-18T18:26:06;102417.06;;;2.93;78.71
35553;BME280;21656;46.054;13.614;2022-12-18T18:28:34;102418.72;;;3.00;77.80
35553;BME280;21656;46.054;13.614;2022-12-18T18:31:05;102417.06;;;2.94;78.69
35553;BME280;21656;46.054;13.614;2022-12-18T18:33:32;102424.13;;;2.95;79.14
35553;BME280;21656;46.054;13.614;2022-12-18T18:35:59;102424.97;;;2.97;79.20
35553;BME280;21656;46.054;13.614;2022-12-18T18:38:27;102422.31;;;2.99;78.55
35553;BME280;21656;46.054;13.614;2022-12-18T18:41:00;102427.66;;;2.97;79.71
35553;BME280;21656;46.054;13.614;2022-12-18T18:43:27;102430.19;;;3.03;78.20
35553;BME280;21656;46.054;13.614;2022-12-18T18:45:55;102436.63;;;2.92;79.00
35553;BME280;21656;46.054;13.614;2022-12-18T18:48:21;102452.53;;;2.95;79.14
35553;BME280;21656;46.054;13.614;2022-12-18T18:51:06;102456.91;;;2.97;78.51
35553;BME280;21656;46.054;13.614;2022-12-18T18:53:37;102458.78;;;2.92;78.82
35553;BME280;21656;46.054;13.614;2022-12-18T18:56:07;102451.72;;;2.90;79.79
35553;BME280;21656;46.054;13.614;2022-12-18T18:58:33;102461.63;;;2.80;79.90
35553;BME280;21656;46.054;13.614;2022-12-18T19:01:05;102460.72;;;2.81;80.28
35553;BME280;21656;46.054;13.614;2022-12-18T19:03:31;102457.19;;;2.82;80.79
35553;BME280;21656;46.054;13.614;2022-12-18T19:05:59;102467.81;;;2.82;79.71
35553;BME280;21656;46.054;13.614;2022-12-18T19:08:31;102464.28;;;2.81;80.26
35553;BME280;21656;46.054;13.614;2022-12-18T19:11:00;102469.56;;;2.85;79.08
35553;BME280;21656;46.054;13.614;2022-12-18T19:13:30;102454.56;;;2.79;80.60
35553;BME280;21656;46.054;13.614;2022-12-18T19:16:05;102467.88;;;2.79;80.19
35553;BME280;21656;46.054;13.614;2022-12-18T19:18:32;102459.78;;;2.85;79.30
35553;BME280;21656;46.054;13.614;2022-12-18T19:21:00;102462.44;;;2.85;79.88
35553;BME280;21656;46.054;13.614;2022-12-18T19:23:27;102459.91;;;2.76;79.04
35553;BME280;21656;46.054;13.614;2022-12-18T19:25:53;102459.09;;;2.74;79.49
35553;BME280;21656;46.054;13.614;2022-12-18T19:28:21;102461.69;;;2.75;80.24
35553;BME280;21656;46.054;13.614;2022-12-18T19:30:51;102463.34;;;2.84;79.52
35553;BME280;21656;46.054;13.614;2022-12-18T19:33:20;102464.31;;;2.80;79.60
35553;BME280;21656;46.054;13.614;2022-12-18T19:35:47;102461.69;;;2.75;80.23
35553;BME280;21656;46.054;13.614;2022-12-18T19:38:13;102457.31;;;2.73;80.25
35553;BME280;21656;46.054;13.614;2022-12-18T19:40:40;102454.72;;;2.68;81.30
35553;BME280;21656;46.054;13.614;2022-12-18T19:43:07;102471.59;;;2.66;81.97
35553;BME280;21656;46.054;13.614;2022-12-18T19:45:33;102466.28;;;2.67;81.05
35553;BME280;21656;46.054;13.614;2022-12-18T19:47:59;102468.81;;;2.75;81.31
35553;BME280;21656;46.054;13.614;2022-12-18T19:50:25;102469.69;;;2.75;80.90
35553;BME280;21656;46.054;13.614;2022-12-18T19:52:50;102470.72;;;2.67;79.95
35553;BME280;21656;46.054;13.614;2022-12-18T19:55:16;102476.84;;;2.72;80.58
35553;BME280;21656;46.054;13.614;2022-12-18T19:57:42;102483.03;;;2.72;80.28
35553;BME280;21656;46.054;13.614;2022-12-18T20:00:08;102476.09;;;2.64;80.52
35553;BME280;21656;46.054;13.614;2022-12-18T20:02:34;102478.63;;;2.71;81.29
35553;BME280;21656;46.054;13.614;2022-12-18T20:05:11;102476.72;;;2.79;80.95
35553;BME280;21656;46.054;13.614;2022-12-18T20:07:37;102484.78;;;2.76;80.14
35553;BME280;21656;46.054;13.614;2022-12-18T20:10:05;102476.72;;;2.79;81.09
35553;BME280;21656;46.054;13.614;2022-12-18T20:12:31;102488.41;;;2.69;80.37
35553;BME280;21656;46.054;13.614;2022-12-18T20:14:56;102490.13;;;2.73;79.97
35553;BME280;21656;46.054;13.614;2022-12-18T20:17:22;102487.53;;;2.69;80.45
35553;BME280;21656;46.054;13.614;2022-12-18T20:19:47;102489.34;;;2.67;80.44
35553;BME280;21656;46.054;13.614;2022-12-18T20:22:13;102494.75;;;2.60;80.63
35553;BME280;21656;46.054;13.614;2022-12-18T20:24:38;102493.75;;;2.69;80.89
35553;BME280;21656;46.054;13.614;2022-12-18T20:27:04;102493.75;;;2.68;80.93
35553;BME280;21656;46.054;13.614;2022-12-18T20:29:29;102491.94;;;2.70;80.21
35553;BME280;21656;46.054;13.614;2022-12-18T20:31:55;102494.63;;;2.68;80.39
35553;BME280;21656;46.054;13.614;2022-12-18T20:34:20;102488.41;;;2.69;79.55
35553;BME280;21656;46.054;13.614;2022-12-18T20:36:46;102482.41;;;2.56;80.67
35553;BME280;21656;46.054;13.614;2022-12-18T20:39:11;102481.59;;;2.51;80.48
35553;BME280;21656;46.054;13.614;2022-12-18T20:41:37;102483.31;;;2.54;81.31
35553;BME280;21656;46.054;13.614;2022-12-18T20:44:03;102481.53;;;2.53;82.00
35553;BME280;21656;46.054;13.614;2022-12-18T20:46:28;102483.31;;;2.54;81.69
35553;BME280;21656;46.054;13.614;2022-12-18T20:48:55;102481.63;;;2.48;81.34
35553;BME280;21656;46.054;13.614;2022-12-18T20:51:21;102484.31;;;2.45;80.68
35553;BME280;21656;46.054;13.614;2022-12-18T20:53:47;102474.59;;;2.46;80.03
35553;BME280;21656;46.054;13.614;2022-12-18T20:56:20;102476.31;;;2.47;81.67
35553;BME280;21656;46.054;13.614;2022-12-18T20:58:47;102484.25;;;2.51;80.77
35553;BME280;21656;46.054;13.614;2022-12-18T21:01:16;102479.78;;;2.53;80.65
35553;BME280;21656;46.054;13.614;2022-12-18T21:03:43;102480.56;;;2.60;81.94
35553;BME280;21656;46.054;13.614;2022-12-18T21:06:10;102480.66;;;2.54;80.62
35553;BME280;21656;46.054;13.614;2022-12-18T21:08:37;102473.66;;;2.48;80.78
35553;BME280;21656;46.054;13.614;2022-12-18T21:14:17;102477.13;;;2.53;79.39
35553;BME280;21656;46.054;13.614;2022-12-18T21:16:43;102474.41;;;2.56;80.71
35553;BME280;21656;46.054;13.614;2022-12-18T21:19:16;102487.72;;;2.56;80.65
35553;BME280;21656;46.054;13.614;2022-12-18T21:21:42;102482.47;;;2.50;80.24
35553;BME280;21656;46.054;13.614;2022-12-18T21:24:09;102489.63;;;2.47;82.21
35553;BME280;21656;46.054;13.614;2022-12-18T21:26:35;102495.78;;;2.50;82.06
35553;BME280;21656;46.054;13.614;2022-12-18T21:29:05;102481.66;;;2.47;81.48
35553;BME280;21656;46.054;13.614;2022-12-18T21:31:33;102483.38;;;2.49;81.80
35553;BME280;21656;46.054;13.614;2022-12-18T21:34:00;102485.28;;;2.39;82.00
35553;BME280;21656;46.054;13.614;2022-12-18T21:36:26;102472.88;;;2.40;81.64
35553;BME280;21656;46.054;13.614;2022-12-18T21:38:52;102485.38;;;2.33;81.94
35553;BME280;21656;46.054;13.614;2022-12-18T21:41:18;102488.91;;;2.34;81.80
35553;BME280;21656;46.054;13.614;2022-12-18T21:44:02;102478.25;;;2.35;83.12
35553;BME280;21656;46.054;13.614;2022-12-18T21:46:30;102483.66;;;2.28;83.28
35553;BME280;21656;46.054;13.614;2022-12-18T21:48:56;102486.31;;;2.29;81.58
35553;BME280;21656;46.054;13.614;2022-12-18T21:51:21;102482.72;;;2.32;81.96
35553;BME280;21656;46.054;13.614;2022-12-18T21:53:46;102478.28;;;2.32;81.61
35553;BME280;21656;46.054;13.614;2022-12-18T21:56:12;102475.66;;;2.31;82.63
35553;BME280;21656;46.054;13.614;2022-12-18T21:58:37;102472.16;;;2.29;82.08
35553;BME280;21656;46.054;13.614;2022-12-18T22:01:02;102470.34;;;2.29;81.51
35553;BME280;21656;46.054;13.614;2022-12-18T22:03:28;102472.97;;;2.32;81.35
35553;BME280;21656;46.054;13.614;2022-12-18T22:05:56;102473.69;;;2.45;81.50
35553;BME280;21656;46.054;13.614;2022-12-18T22:08:22;102463.97;;;2.43;80.55
35553;BME280;21656;46.054;13.614;2022-12-18T22:10:47;102472.84;;;2.42;81.77
35553;BME280;21656;46.054;13.614;2022-12-18T22:13:13;102469.31;;;2.41;81.19
35553;BME280;21656;46.054;13.614;2022-12-18T22:15:38;102475.50;;;2.43;81.81
35553;BME280;21656;46.054;13.614;2022-12-18T22:18:03;102475.56;;;2.38;80.91
35553;BME280;21656;46.054;13.614;2022-12-18T22:20:29;102472.09;;;2.30;81.65
35553;BME280;21656;46.054;13.614;2022-12-18T22:22:54;102478.28;;;2.32;81.16
35553;BME280;21656;46.054;13.614;2022-12-18T22:25:19;102480.94;;;2.34;81.21
35553;BME280;21656;46.054;13.614;2022-12-18T22:27:45;102481.81;;;2.34;80.92
35553;BME280;21656;46.054;13.614;2022-12-18T22:30:30;102478.16;;;2.43;81.58
35553;BME280;21656;46.054;13.614;2022-12-18T22:32:55;102471.97;;;2.41;80.12
35553;BME280;21656;46.054;13.614;2022-12-18T22:35:21;102483.50;;;2.40;79.93
35553;BME280;21656;46.054;13.614;2022-12-18T22:37:46;102475.56;;;2.37;79.98
35553;BME280;21656;46.054;13.614;2022-12-18T22:40:20;102481.91;;;2.27;80.97
35553;BME280;21656;46.054;13.614;2022-12-18T22:42:47;102473.00;;;2.31;80.78
35553;BME280;21656;46.054;13.614;2022-12-18T22:45:12;102474.75;;;2.30;80.22
35553;BME280;21656;46.054;13.614;2022-12-18T22:47:38;102472.16;;;2.29;80.28
35553;BME280;21656;46.054;13.614;2022-12-18T22:50:03;102477.53;;;2.24;80.74
35553;BME280;21656;46.054;13.614;2022-12-18T22:52:30;102468.66;;;2.24;81.08
35553;BME280;21656;46.054;13.614;2022-12-18T22:54:55;102465.09;;;2.26;80.26
35553;BME280;21656;46.054;13.614;2022-12-18T22:57:21;102467.69;;;2.29;80.00
35553;BME280;21656;46.054;13.614;2022-12-18T22:59:46;102459.81;;;2.22;80.82
35553;BME280;21656;46.054;13.614;2022-12-18T23:02:12;102469.63;;;2.18;82.04
35553;BME280;21656;46.054;13.614;2022-12-18T23:04:37;102472.34;;;2.13;80.72
35553;BME280;21656;46.054;13.614;2022-12-18T23:07:04;102467.84;;;2.19;80.87
35553;BME280;21656;46.054;13.614;2022-12-18T23:09:29;102465.09;;;2.26;80.37
35553;BME280;21656;46.054;13.614;2022-12-18T23:11:55;102466.94;;;2.20;79.70
35553;BME280;21656;46.054;13.614;2022-12-18T23:14:20;102471.28;;;2.25;80.27
35553;BME280;21656;46.054;13.614;2022-12-18T23:16:46;102458.91;;;2.24;80.32
35553;BME280;21656;46.054;13.614;2022-12-18T23:19:11;102458.91;;;2.24;79.74